sensor_id;sensor_type;location;lat;lon;timestamp;temperature;humidity
69031;DHT22;56083;48.774;8.942;2023-09-19T00:01:32;16.40;99.90
69031;DHT22;56083;48.774;8.942;2023-09-19T00:03:57;16.40;99.90
69031;DHT22;56083;48.774;8.942;2023-09-19T00:06:24;16.40;99.90
69031;DHT22;56083;48.774;8.942;2023-09-19T00:08:52;16.30;99.90
69031;DHT22;56083;48.774;8.942;2023-09-19T00:11:18;16.30;99.90
69031;DHT22;56083;48.774;8.942;2023-09-19T00:13:43;16.30;99.90
69031;DHT22;56083;48.774;8.942;2023-09-19T00:16:10;16.30;99.90
69031;DHT22;56083;48.774;8.942;2023-09-19T00:18:37;16.30;99.90
69031;DHT22;56083;48.774;8.942;2023-09-19T00:21:03;16.20;99.90
69031;DHT22;56083;48.774;8.942;2023-09-19T00:23:30;16.20;99.90
69031;DHT22;56083;48.774;8.942;2023-09-19T00:26:00;16.20;99.90
69031;DHT22;56083;48.774;8.942;2023-09-19T00:28:27;16.20;99.90
69031;DHT22;56083;48.774;8.942;2023-09-19T00:30:52;16.20;99.90
69031;DHT22;56083;48.774;8.942;2023-09-19T00:33:23;16.10;99.90
69031;DHT22;56083;48.774;8.942;2023-09-19T00:35:54;16.10;99.90
69031;DHT22;56083;48.774;8.942;2023-09-19T00:38:21;16.10;99.90
69031;DHT22;56083;48.774;8.942;2023-09-19T00:40:49;16.10;99.90
69031;DHT22;56083;48.774;8.942;2023-09-19T00:43:16;16.10;99.90
69031;DHT22;56083;48.774;8.942;2023-09-19T00:45:44;16.20;99.90
69031;DHT22;56083;48.774;8.942;2023-09-19T00:48:10;16.20;99.90
69031;DHT22;56083;48.774;8.942;2023-09-19T00:50:38;16.20;99.90
69031;DHT22;56083;48.774;8.942;2023-09-19T00:53:09;16.10;99.90
69031;DHT22;56083;48.774;8.942;2023-09-19T00:55:39;16.10;99.90
69031;DHT22;56083;48.774;8.942;2023-09-19T00:58:05;16.20;99.90
69031;DHT22;56083;48.774;8.942;2023-09-19T01:00:35;16.20;99.90
69031;DHT22;56083;48.774;8.942;2023-09-19T01:03:01;16.20;99.90
69031;DHT22;56083;48.774;8.942;2023-09-19T01:05:34;16.20;99.90
69031;DHT22;56083;48.774;8.942;2023-09-19T01:08:01;16.20;99.90
69031;DHT22;56083;48.774;8.942;2023-09-19T01:10:27;16.20;99.90
69031;DHT22;56083;48.774;8.942;2023-09-19T01:13:09;16.10;99.90
69031;DHT22;56083;48.774;8.942;2023-09-19T01:18:43;16.00;99.90
69031;DHT22;56083;48.774;8.942;2023-09-19T01:21:53;16.00;99.90
69031;DHT22;56083;48.774;8.942;2023-09-19T01:30:42;16.00;99.90
69031;DHT22;56083;48.774;8.942;2023-09-19T01:33:09;16.00;99.90
69031;DHT22;56083;48.774;8.942;2023-09-19T01:35:45;16.00;99.90
69031;DHT22;56083;48.774;8.942;2023-09-19T01:38:11;15.90;99.90
69031;DHT22;56083;48.774;8.942;2023-09-19T01:40:44;15.90;99.90
69031;DHT22;56083;48.774;8.942;2023-09-19T01:43:27;15.90;99.90
69031;DHT22;56083;48.774;8.942;2023-09-19T01:46:16;15.90;99.90
69031;DHT22;56083;48.774;8.942;2023-09-19T01:54:46;15.80;99.90
69031;DHT22;56083;48.774;8.942;2023-09-19T01:57:31;15.80;99.90
69031;DHT22;56083;48.774;8.942;2023-09-19T02:00:08;15.70;99.90
69031;DHT22;56083;48.774;8.942;2023-09-19T02:02:37;15.60;99.90
69031;DHT22;56083;48.774;8.942;2023-09-19T02:05:04;15.50;99.90
69031;DHT22;56083;48.774;8.942;2023-09-19T02:07:30;15.40;99.90
69031;DHT22;56083;48.774;8.942;2023-09-19T02:09:57;15.30;99.90
69031;DHT22;56083;48.774;8.942;2023-09-19T02:12:25;15.20;99.90
69031;DHT22;56083;48.774;8.942;2023-09-19T02:14:51;15.10;99.90
69031;DHT22;56083;48.774;8.942;2023-09-19T02:17:17;15.10;99.90
69031;DHT22;56083;48.774;8.942;2023-09-19T02:19:42;15.10;99.90
69031;DHT22;56083;48.774;8.942;2023-09-19T02:22:08;15.30;99.90
69031;DHT22;56083;48.774;8.942;2023-09-19T02:24:36;15.30;99.90
69031;DHT22;56083;48.774;8.942;2023-09-19T02:27:02;15.40;99.90
69031;DHT22;56083;48.774;8.942;2023-09-19T02:29:31;15.40;99.90
69031;DHT22;56083;48.774;8.942;2023-09-19T02:31:59;15.40;99.90
69031;DHT22;56083;48.774;8.942;2023-09-19T02:34:27;15.30;99.90
69031;DHT22;56083;48.774;8.942;2023-09-19T02:36:52;15.30;99.90
69031;DHT22;56083;48.774;8.942;2023-09-19T02:39:20;15.30;99.90
69031;DHT22;56083;48.774;8.942;2023-09-19T02:41:46;15.20;99.90
69031;DHT22;56083;48.774;8.942;2023-09-19T02:44:11;15.30;99.90
69031;DHT22;56083;48.774;8.942;2023-09-19T02:46:37;15.20;99.90
69031;DHT22;56083;48.774;8.942;2023-09-19T02:49:03;15.30;99.90
69031;DHT22;56083;48.774;8.942;2023-09-19T02:51:32;15.30;99.90
69031;DHT22;56083;48.774;8.942;2023-09-19T02:54:01;15.40;99.90
69031;DHT22;56083;48.774;8.942;2023-09-19T02:56:29;15.30;99.90
69031;DHT22;56083;48.774;8.942;2023-09-19T02:58:56;15.30;99.90
69031;DHT22;56083;48.774;8.942;2023-09-19T03:01:21;15.40;99.90
69031;DHT22;56083;48.774;8.942;2023-09-19T03:03:47;15.40;99.90
69031;DHT22;56083;48.774;8.942;2023-09-19T03:06:13;15.40;99.90
69031;DHT22;56083;48.774;8.942;2023-09-19T03:08:40;15.40;99.90
69031;DHT22;56083;48.774;8.942;2023-09-19T03:11:10;15.50;99.90
69031;DHT22;56083;48.774;8.942;2023-09-19T03:13:38;15.50;99.90
69031;DHT22;56083;48.774;8.942;2023-09-19T03:16:05;15.50;99.90
69031;DHT22;56083;48.774;8.942;2023-09-19T03:18:32;15.50;99.90
69031;DHT22;56083;48.774;8.942;2023-09-19T03:20:57;15.50;99.90
69031;DHT22;56083;48.774;8.942;2023-09-19T03:23:27;15.50;99.90
69031;DHT22;56083;48.774;8.942;2023-09-19T03:25:53;15.50;99.90
69031;DHT22;56083;48.774;8.942;2023-09-19T03:28:19;15.50;99.90
69031;DHT22;56083;48.774;8.942;2023-09-19T03:30:58;15.60;99.90
69031;DHT22;56083;48.774;8.942;2023-09-19T03:33:24;15.60;99.90
69031;DHT22;56083;48.774;8.942;2023-09-19T03:35:54;15.60;99.90
69031;DHT22;56083;48.774;8.942;2023-09-19T03:38:20;15.60;99.90
69031;DHT22;56083;48.774;8.942;2023-09-19T03:40:47;15.70;99.90
69031;DHT22;56083;48.774;8.942;2023-09-19T03:43:14;15.70;99.90
69031;DHT22;56083;48.774;8.942;2023-09-19T03:45:40;15.70;99.90
69031;DHT22;56083;48.774;8.942;2023-09-19T03:48:12;15.80;99.90
69031;DHT22;56083;48.774;8.942;2023-09-19T03:50:38;15.90;99.90
69031;DHT22;56083;48.774;8.942;2023-09-19T03:53:04;15.90;99.90
69031;DHT22;56083;48.774;8.942;2023-09-19T03:55:29;15.90;99.90
69031;DHT22;56083;48.774;8.942;2023-09-19T03:57:56;15.90;99.90
69031;DHT22;56083;48.774;8.942;2023-09-19T04:00:29;15.90;99.90
69031;DHT22;56083;48.774;8.942;2023-09-19T04:02:55;16.00;99.90
69031;DHT22;56083;48.774;8.942;2023-09-19T04:05:23;15.90;99.90
69031;DHT22;56083;48.774;8.942;2023-09-19T04:08:01;16.00;99.90
69031;DHT22;56083;48.774;8.942;2023-09-19T04:10:32;15.90;99.90
69031;DHT22;56083;48.774;8.942;2023-09-19T04:13:22;15.90;99.90
69031;DHT22;56083;48.774;8.942;2023-09-19T04:15:50;15.90;99.90
69031;DHT22;56083;48.774;8.942;2023-09-19T04:18:29;15.80;99.90
69031;DHT22;56083;48.774;8.942;2023-09-19T04:21:02;15.80;99.90
69031;DHT22;56083;48.774;8.942;2023-09-19T04:23:33;15.80;99.90
69031;DHT22;56083;48.774;8.942;2023-09-19T04:25:59;15.80;99.90
69031;DHT22;56083;48.774;8.942;2023-09-19T04:28:26;15.80;99.90
69031;DHT22;56083;48.774;8.942;2023-09-19T04:30:56;15.80;99.90
69031;DHT22;56083;48.774;8.942;2023-09-19T04:33:21;15.70;99.90
69031;DHT22;56083;48.774;8.942;2023-09-19T04:35:52;15.80;99.90
69031;DHT22;56083;48.774;8.942;2023-09-19T04:38:18;15.70;99.90
69031;DHT22;56083;48.774;8.942;2023-09-19T04:40:45;15.60;99.90
69031;DHT22;56083;48.774;8.942;2023-09-19T04:43:10;15.50;99.90
69031;DHT22;56083;48.774;8.942;2023-09-19T04:45:38;15.40;99.90
69031;DHT22;56083;48.774;8.942;2023-09-19T04:48:05;15.20;99.90
69031;DHT22;56083;48.774;8.942;2023-09-19T04:50:32;15.10;99.90
69031;DHT22;56083;48.774;8.942;2023-09-19T04:52:59;15.10;99.90
69031;DHT22;56083;48.774;8.942;2023-09-19T04:55:26;15.00;99.90
69031;DHT22;56083;48.774;8.942;2023-09-19T04:57:52;15.00;99.90
69031;DHT22;56083;48.774;8.942;2023-09-19T05:00:20;15.00;99.90
69031;DHT22;56083;48.774;8.942;2023-09-19T05:02:50;14.90;99.90
69031;DHT22;56083;48.774;8.942;2023-09-19T05:05:17;14.90;99.90
69031;DHT22;56083;48.774;8.942;2023-09-19T05:07:43;14.90;99.90
69031;DHT22;56083;48.774;8.942;2023-09-19T05:10:12;14.90;99.90
69031;DHT22;56083;48.774;8.942;2023-09-19T05:12:39;14.90;99.90
69031;DHT22;56083;48.774;8.942;2023-09-19T05:15:05;14.90;99.90
69031;DHT22;56083;48.774;8.942;2023-09-19T05:17:32;14.90;99.90
69031;DHT22;56083;48.774;8.942;2023-09-19T05:19:58;14.90;99.90
69031;DHT22;56083;48.774;8.942;2023-09-19T05:22:26;15.00;99.90
69031;DHT22;56083;48.774;8.942;2023-09-19T05:24:52;15.10;99.90
69031;DHT22;56083;48.774;8.942;2023-09-19T05:27:19;15.00;99.90
69031;DHT22;56083;48.774;8.942;2023-09-19T05:29:46;15.00;99.90
69031;DHT22;56083;48.774;8.942;2023-09-19T05:32:12;15.00;99.90
69031;DHT22;56083;48.774;8.942;2023-09-19T05:34:38;14.90;99.90
69031;DHT22;56083;48.774;8.942;2023-09-19T05:37:05;14.80;99.90
69031;DHT22;56083;48.774;8.942;2023-09-19T05:39:33;14.80;99.90
69031;DHT22;56083;48.774;8.942;2023-09-19T05:41:59;14.70;99.90
69031;DHT22;56083;48.774;8.942;2023-09-19T05:44:25;14.70;99.90
69031;DHT22;56083;48.774;8.942;2023-09-19T05:46:51;14.60;99.90
69031;DHT22;56083;48.774;8.942;2023-09-19T05:49:17;14.60;99.90
69031;DHT22;56083;48.774;8.942;2023-09-19T05:51:43;14.50;99.90
69031;DHT22;56083;48.774;8.942;2023-09-19T05:54:08;14.50;99.90
69031;DHT22;56083;48.774;8.942;2023-09-19T05:56:34;14.50;99.90
69031;DHT22;56083;48.774;8.942;2023-09-19T05:59:00;14.50;99.90
69031;DHT22;56083;48.774;8.942;2023-09-19T06:01:25;14.50;99.90
69031;DHT22;56083;48.774;8.942;2023-09-19T06:03:52;14.50;99.90
69031;DHT22;56083;48.774;8.942;2023-09-19T06:06:18;14.50;99.90
69031;DHT22;56083;48.774;8.942;2023-09-19T06:08:44;14.50;99.90
69031;DHT22;56083;48.774;8.942;2023-09-19T06:11:10;14.40;99.90
69031;DHT22;56083;48.774;8.942;2023-09-19T06:13:36;14.40;99.90
69031;DHT22;56083;48.774;8.942;2023-09-19T06:16:04;14.50;99.90
69031;DHT22;56083;48.774;8.942;2023-09-19T06:18:33;14.50;99.90
69031;DHT22;56083;48.774;8.942;2023-09-19T06:21:01;14.60;99.90
69031;DHT22;56083;48.774;8.942;2023-09-19T06:23:33;14.60;99.90
69031;DHT22;56083;48.774;8.942;2023-09-19T06:25:59;14.50;99.90
69031;DHT22;56083;48.774;8.942;2023-09-19T06:28:25;14.60;99.90
69031;DHT22;56083;48.774;8.942;2023-09-19T06:30:56;14.60;99.90
69031;DHT22;56083;48.774;8.942;2023-09-19T06:33:22;14.60;99.90
69031;DHT22;56083;48.774;8.942;2023-09-19T06:35:48;14.80;99.90
69031;DHT22;56083;48.774;8.942;2023-09-19T06:38:15;14.90;99.90
69031;DHT22;56083;48.774;8.942;2023-09-19T06:40:41;15.10;99.90
69031;DHT22;56083;48.774;8.942;2023-09-19T06:43:10;15.20;99.90
69031;DHT22;56083;48.774;8.942;2023-09-19T06:45:38;15.30;99.90
69031;DHT22;56083;48.774;8.942;2023-09-19T06:48:05;15.50;99.90
69031;DHT22;56083;48.774;8.942;2023-09-19T06:50:32;15.60;99.90
69031;DHT22;56083;48.774;8.942;2023-09-19T06:52:58;15.70;99.90
69031;DHT22;56083;48.774;8.942;2023-09-19T06:55:31;15.70;99.90
69031;DHT22;56083;48.774;8.942;2023-09-19T06:57:57;15.70;99.90
69031;DHT22;56083;48.774;8.942;2023-09-19T07:00:24;15.80;99.90
69031;DHT22;56083;48.774;8.942;2023-09-19T07:05:23;15.70;99.90
69031;DHT22;56083;48.774;8.942;2023-09-19T07:07:55;15.80;99.90
69031;DHT22;56083;48.774;8.942;2023-09-19T07:10:24;15.80;99.90
69031;DHT22;56083;48.774;8.942;2023-09-19T07:13:03;15.80;99.90
69031;DHT22;56083;48.774;8.942;2023-09-19T07:15:32;15.80;99.90
69031;DHT22;56083;48.774;8.942;2023-09-19T07:18:01;15.90;99.90
69031;DHT22;56083;48.774;8.942;2023-09-19T07:20:27;16.00;99.90
69031;DHT22;56083;48.774;8.942;2023-09-19T07:22:55;16.10;99.90
69031;DHT22;56083;48.774;8.942;2023-09-19T07:25:25;16.30;99.90
69031;DHT22;56083;48.774;8.942;2023-09-19T07:27:52;16.50;99.90
69031;DHT22;56083;48.774;8.942;2023-09-19T07:30:18;16.70;99.90
69031;DHT22;56083;48.774;8.942;2023-09-19T07:32:43;17.00;99.90
69031;DHT22;56083;48.774;8.942;2023-09-19T07:35:09;17.30;99.90
69031;DHT22;56083;48.774;8.942;2023-09-19T07:37:35;17.50;99.90
69031;DHT22;56083;48.774;8.942;2023-09-19T07:40:03;17.70;99.90
69031;DHT22;56083;48.774;8.942;2023-09-19T07:42:36;18.00;99.90
69031;DHT22;56083;48.774;8.942;2023-09-19T07:45:05;18.00;99.90
69031;DHT22;56083;48.774;8.942;2023-09-19T07:47:31;18.10;99.90
69031;DHT22;56083;48.774;8.942;2023-09-19T07:49:58;18.30;99.90
69031;DHT22;56083;48.774;8.942;2023-09-19T07:52:26;19.00;99.90
69031;DHT22;56083;48.774;8.942;2023-09-19T07:54:54;19.90;99.90
69031;DHT22;56083;48.774;8.942;2023-09-19T07:57:19;20.70;99.90
69031;DHT22;56083;48.774;8.942;2023-09-19T07:59:45;21.50;99.90
69031;DHT22;56083;48.774;8.942;2023-09-19T08:02:11;21.70;99.90
69031;DHT22;56083;48.774;8.942;2023-09-19T08:04:42;22.20;99.90
69031;DHT22;56083;48.774;8.942;2023-09-19T08:07:08;22.40;99.90
69031;DHT22;56083;48.774;8.942;2023-09-19T08:09:34;22.30;99.90
69031;DHT22;56083;48.774;8.942;2023-09-19T08:12:00;22.10;99.90
69031;DHT22;56083;48.774;8.942;2023-09-19T08:14:29;22.10;99.90
69031;DHT22;56083;48.774;8.942;2023-09-19T08:16:58;22.50;99.90
69031;DHT22;56083;48.774;8.942;2023-09-19T08:19:24;22.50;99.90
69031;DHT22;56083;48.774;8.942;2023-09-19T08:21:57;22.50;99.90
69031;DHT22;56083;48.774;8.942;2023-09-19T08:24:27;22.90;99.90
69031;DHT22;56083;48.774;8.942;2023-09-19T08:26:57;23.50;99.90
69031;DHT22;56083;48.774;8.942;2023-09-19T08:29:24;23.50;99.90
69031;DHT22;56083;48.774;8.942;2023-09-19T08:31:59;22.80;99.90
69031;DHT22;56083;48.774;8.942;2023-09-19T08:34:25;22.30;99.90
69031;DHT22;56083;48.774;8.942;2023-09-19T08:36:52;22.40;99.90
69031;DHT22;56083;48.774;8.942;2023-09-19T08:39:29;22.30;99.90
69031;DHT22;56083;48.774;8.942;2023-09-19T08:42:00;22.20;99.90
69031;DHT22;56083;48.774;8.942;2023-09-19T08:44:29;21.60;99.90
69031;DHT22;56083;48.774;8.942;2023-09-19T08:47:16;21.50;99.90
69031;DHT22;56083;48.774;8.942;2023-09-19T08:50:04;21.50;99.90
69031;DHT22;56083;48.774;8.942;2023-09-19T08:52:46;21.50;99.90
69031;DHT22;56083;48.774;8.942;2023-09-19T08:55:19;21.80;99.90
69031;DHT22;56083;48.774;8.942;2023-09-19T08:57:49;22.60;99.90
69031;DHT22;56083;48.774;8.942;2023-09-19T09:00:16;22.70;99.90
69031;DHT22;56083;48.774;8.942;2023-09-19T09:02:47;22.80;99.90
69031;DHT22;56083;48.774;8.942;2023-09-19T09:05:15;23.60;99.90
69031;DHT22;56083;48.774;8.942;2023-09-19T09:07:42;24.00;99.90
69031;DHT22;56083;48.774;8.942;2023-09-19T09:10:09;23.70;99.90
69031;DHT22;56083;48.774;8.942;2023-09-19T09:12:35;23.40;99.90
69031;DHT22;56083;48.774;8.942;2023-09-19T09:15:03;22.90;99.90
69031;DHT22;56083;48.774;8.942;2023-09-19T09:17:29;22.50;99.90
69031;DHT22;56083;48.774;8.942;2023-09-19T09:19:55;21.90;99.90
69031;DHT22;56083;48.774;8.942;2023-09-19T09:22:21;22.00;99.90
69031;DHT22;56083;48.774;8.942;2023-09-19T09:24:57;22.70;99.90
69031;DHT22;56083;48.774;8.942;2023-09-19T09:27:30;23.20;99.90
69031;DHT22;56083;48.774;8.942;2023-09-19T09:29:58;23.40;99.90
69031;DHT22;56083;48.774;8.942;2023-09-19T09:32:30;23.90;99.90
69031;DHT22;56083;48.774;8.942;2023-09-19T09:35:02;24.80;99.90
69031;DHT22;56083;48.774;8.942;2023-09-19T09:37:34;25.10;99.90
69031;DHT22;56083;48.774;8.942;2023-09-19T09:40:04;24.50;99.90
69031;DHT22;56083;48.774;8.942;2023-09-19T09:42:42;24.00;99.90
69031;DHT22;56083;48.774;8.942;2023-09-19T09:47:45;24.70;99.90
69031;DHT22;56083;48.774;8.942;2023-09-19T09:50:33;23.90;99.90
69031;DHT22;56083;48.774;8.942;2023-09-19T09:53:39;24.30;99.90
69031;DHT22;56083;48.774;8.942;2023-09-19T09:56:09;24.50;99.90
69031;DHT22;56083;48.774;8.942;2023-09-19T10:01:06;23.40;99.90
69031;DHT22;56083;48.774;8.942;2023-09-19T10:03:38;23.00;99.90
69031;DHT22;56083;48.774;8.942;2023-09-19T10:06:10;23.30;99.90
69031;DHT22;56083;48.774;8.942;2023-09-19T10:09:08;24.20;99.90
69031;DHT22;56083;48.774;8.942;2023-09-19T10:12:03;24.80;99.90
69031;DHT22;56083;48.774;8.942;2023-09-19T10:14:33;24.70;99.90
69031;DHT22;56083;48.774;8.942;2023-09-19T10:17:00;23.90;99.90
69031;DHT22;56083;48.774;8.942;2023-09-19T10:19:50;24.00;99.90
69031;DHT22;56083;48.774;8.942;2023-09-19T10:22:23;24.60;99.90
69031;DHT22;56083;48.774;8.942;2023-09-19T10:24:50;25.00;99.90
69031;DHT22;56083;48.774;8.942;2023-09-19T10:27:19;26.00;99.90
69031;DHT22;56083;48.774;8.942;2023-09-19T10:29:49;26.80;99.90
69031;DHT22;56083;48.774;8.942;2023-09-19T10:32:19;26.10;99.90
69031;DHT22;56083;48.774;8.942;2023-09-19T10:34:47;26.20;99.90
69031;DHT22;56083;48.774;8.942;2023-09-19T10:37:16;25.10;99.90
69031;DHT22;56083;48.774;8.942;2023-09-19T10:39:45;25.00;99.90
69031;DHT22;56083;48.774;8.942;2023-09-19T10:42:16;25.70;99.90
69031;DHT22;56083;48.774;8.942;2023-09-19T10:44:45;26.50;99.90
69031;DHT22;56083;48.774;8.942;2023-09-19T10:47:12;26.80;99.90
69031;DHT22;56083;48.774;8.942;2023-09-19T10:49:46;27.60;99.90
69031;DHT22;56083;48.774;8.942;2023-09-19T10:52:17;26.00;99.90
69031;DHT22;56083;48.774;8.942;2023-09-19T10:54:54;24.30;99.90
69031;DHT22;56083;48.774;8.942;2023-09-19T10:57:23;23.90;99.90
69031;DHT22;56083;48.774;8.942;2023-09-19T11:00:06;24.40;99.90
69031;DHT22;56083;48.774;8.942;2023-09-19T11:05:39;26.50;99.90
69031;DHT22;56083;48.774;8.942;2023-09-19T11:08:10;26.60;99.80
69031;DHT22;56083;48.774;8.942;2023-09-19T11:10:47;27.10;97.10
69031;DHT22;56083;48.774;8.942;2023-09-19T11:13:29;27.50;96.40
69031;DHT22;56083;48.774;8.942;2023-09-19T11:16:03;26.50;97.00
69031;DHT22;56083;48.774;8.942;2023-09-19T11:26:43;23.90;99.50
69031;DHT22;56083;48.774;8.942;2023-09-19T11:29:29;23.40;99.90
69031;DHT22;56083;48.774;8.942;2023-09-19T11:31:59;24.40;99.70
69031;DHT22;56083;48.774;8.942;2023-09-19T11:37:02;26.70;96.10
69031;DHT22;56083;48.774;8.942;2023-09-19T11:39:30;27.10;95.70
69031;DHT22;56083;48.774;8.942;2023-09-19T11:41:55;28.00;94.70
69031;DHT22;56083;48.774;8.942;2023-09-19T11:46:52;28.20;92.90
69031;DHT22;56083;48.774;8.942;2023-09-19T11:49:19;28.10;92.60
69031;DHT22;56083;48.774;8.942;2023-09-19T11:51:50;28.30;92.90
69031;DHT22;56083;48.774;8.942;2023-09-19T11:54:19;29.40;92.50
69031;DHT22;56083;48.774;8.942;2023-09-19T11:56:52;29.80;93.60
69031;DHT22;56083;48.774;8.942;2023-09-19T11:59:28;30.50;90.30
69031;DHT22;56083;48.774;8.942;2023-09-19T12:02:03;30.00;90.60
69031;DHT22;56083;48.774;8.942;2023-09-19T12:09:39;30.50;86.90
69031;DHT22;56083;48.774;8.942;2023-09-19T12:12:08;30.80;82.20
69031;DHT22;56083;48.774;8.942;2023-09-19T12:14:34;30.90;81.90
69031;DHT22;56083;48.774;8.942;2023-09-19T12:17:00;30.80;79.60
69031;DHT22;56083;48.774;8.942;2023-09-19T12:19:28;30.90;77.40
69031;DHT22;56083;48.774;8.942;2023-09-19T12:22:02;30.00;79.00
69031;DHT22;56083;48.774;8.942;2023-09-19T12:24:32;29.60;80.20
69031;DHT22;56083;48.774;8.942;2023-09-19T12:27:07;30.10;78.60
69031;DHT22;56083;48.774;8.942;2023-09-19T12:29:46;30.50;79.10
69031;DHT22;56083;48.774;8.942;2023-09-19T12:32:15;30.50;75.00
69031;DHT22;56083;48.774;8.942;2023-09-19T12:34:53;29.80;75.90
69031;DHT22;56083;48.774;8.942;2023-09-19T12:37:20;29.50;78.80
69031;DHT22;56083;48.774;8.942;2023-09-19T12:39:53;29.80;77.60
69031;DHT22;56083;48.774;8.942;2023-09-19T12:42:39;29.80;75.00
69031;DHT22;56083;48.774;8.942;2023-09-19T12:45:07;29.80;76.30
69031;DHT22;56083;48.774;8.942;2023-09-19T12:47:34;28.30;78.40
69031;DHT22;56083;48.774;8.942;2023-09-19T12:52:50;26.40;83.80
69031;DHT22;56083;48.774;8.942;2023-09-19T12:55:27;27.00;83.70
69031;DHT22;56083;48.774;8.942;2023-09-19T12:58:12;28.10;81.50
69031;DHT22;56083;48.774;8.942;2023-09-19T13:00:40;29.70;77.50
69031;DHT22;56083;48.774;8.942;2023-09-19T13:05:59;29.40;78.30
69031;DHT22;56083;48.774;8.942;2023-09-19T13:08:30;29.10;79.80
69031;DHT22;56083;48.774;8.942;2023-09-19T13:13:51;29.90;80.10
69031;DHT22;56083;48.774;8.942;2023-09-19T13:16:21;29.90;76.70
69031;DHT22;56083;48.774;8.942;2023-09-19T13:18:51;29.80;77.30
69031;DHT22;56083;48.774;8.942;2023-09-19T13:21:31;30.60;75.90
69031;DHT22;56083;48.774;8.942;2023-09-19T13:24:20;31.20;75.10
69031;DHT22;56083;48.774;8.942;2023-09-19T13:26:46;30.60;75.10
69031;DHT22;56083;48.774;8.942;2023-09-19T13:29:12;30.70;74.10
69031;DHT22;56083;48.774;8.942;2023-09-19T13:31:37;31.10;73.10
69031;DHT22;56083;48.774;8.942;2023-09-19T13:34:07;31.20;73.20
69031;DHT22;56083;48.774;8.942;2023-09-19T13:36:32;31.30;73.50
69031;DHT22;56083;48.774;8.942;2023-09-19T13:38:59;30.90;74.00
69031;DHT22;56083;48.774;8.942;2023-09-19T13:41:25;30.80;72.50
69031;DHT22;56083;48.774;8.942;2023-09-19T13:43:51;30.60;74.70
69031;DHT22;56083;48.774;8.942;2023-09-19T13:46:17;31.40;72.50
69031;DHT22;56083;48.774;8.942;2023-09-19T13:48:50;31.20;69.40
69031;DHT22;56083;48.774;8.942;2023-09-19T13:51:17;30.90;70.30
69031;DHT22;56083;48.774;8.942;2023-09-19T13:53:44;30.40;72.30
69031;DHT22;56083;48.774;8.942;2023-09-19T13:56:10;30.70;71.60
69031;DHT22;56083;48.774;8.942;2023-09-19T13:58:36;30.30;72.60
69031;DHT22;56083;48.774;8.942;2023-09-19T14:01:02;29.90;73.20
69031;DHT22;56083;48.774;8.942;2023-09-19T14:03:28;29.70;73.50
69031;DHT22;56083;48.774;8.942;2023-09-19T14:05:54;29.80;75.10
69031;DHT22;56083;48.774;8.942;2023-09-19T14:08:19;29.50;71.70
69031;DHT22;56083;48.774;8.942;2023-09-19T14:10:45;28.40;72.70
69031;DHT22;56083;48.774;8.942;2023-09-19T14:13:11;26.80;75.60
69031;DHT22;56083;48.774;8.942;2023-09-19T14:15:39;26.50;77.70
69031;DHT22;56083;48.774;8.942;2023-09-19T14:18:04;27.70;76.30
69031;DHT22;56083;48.774;8.942;2023-09-19T14:20:30;27.50;75.60
69031;DHT22;56083;48.774;8.942;2023-09-19T14:22:57;26.70;77.50
69031;DHT22;56083;48.774;8.942;2023-09-19T14:25:25;25.70;80.60
69031;DHT22;56083;48.774;8.942;2023-09-19T14:27:50;25.10;84.10
69031;DHT22;56083;48.774;8.942;2023-09-19T14:30:17;25.50;82.00
69031;DHT22;56083;48.774;8.942;2023-09-19T14:32:42;26.60;79.20
69031;DHT22;56083;48.774;8.942;2023-09-19T14:35:08;27.10;77.40
69031;DHT22;56083;48.774;8.942;2023-09-19T14:37:39;27.30;77.40
69031;DHT22;56083;48.774;8.942;2023-09-19T14:40:05;28.30;74.80
69031;DHT22;56083;48.774;8.942;2023-09-19T14:42:43;29.10;72.10
69031;DHT22;56083;48.774;8.942;2023-09-19T14:45:10;29.40;70.20
69031;DHT22;56083;48.774;8.942;2023-09-19T14:47:37;29.30;69.80
69031;DHT22;56083;48.774;8.942;2023-09-19T14:50:03;28.00;73.20
69031;DHT22;56083;48.774;8.942;2023-09-19T14:52:34;27.10;75.00
69031;DHT22;56083;48.774;8.942;2023-09-19T14:55:01;26.40;76.10
69031;DHT22;56083;48.774;8.942;2023-09-19T14:57:27;26.10;76.30
69031;DHT22;56083;48.774;8.942;2023-09-19T14:59:53;25.80;77.80
69031;DHT22;56083;48.774;8.942;2023-09-19T15:02:19;25.40;78.70
69031;DHT22;56083;48.774;8.942;2023-09-19T15:04:46;25.00;79.40
69031;DHT22;56083;48.774;8.942;2023-09-19T15:07:14;24.80;81.30
69031;DHT22;56083;48.774;8.942;2023-09-19T15:09:43;24.90;81.10
69031;DHT22;56083;48.774;8.942;2023-09-19T15:12:09;25.00;81.60
69031;DHT22;56083;48.774;8.942;2023-09-19T15:14:36;25.20;82.00
69031;DHT22;56083;48.774;8.942;2023-09-19T15:17:02;25.20;82.40
69031;DHT22;56083;48.774;8.942;2023-09-19T15:19:30;24.70;82.40
69031;DHT22;56083;48.774;8.942;2023-09-19T15:21:55;24.20;85.60
69031;DHT22;56083;48.774;8.942;2023-09-19T15:24:23;24.20;86.10
69031;DHT22;56083;48.774;8.942;2023-09-19T15:26:52;25.00;84.20
69031;DHT22;56083;48.774;8.942;2023-09-19T15:29:17;25.80;81.80
69031;DHT22;56083;48.774;8.942;2023-09-19T15:31:44;25.80;81.50
69031;DHT22;56083;48.774;8.942;2023-09-19T15:34:10;25.40;83.30
69031;DHT22;56083;48.774;8.942;2023-09-19T15:36:41;24.70;84.30
69031;DHT22;56083;48.774;8.942;2023-09-19T15:39:07;24.10;86.30
69031;DHT22;56083;48.774;8.942;2023-09-19T15:41:38;23.70;87.30
69031;DHT22;56083;48.774;8.942;2023-09-19T15:44:04;23.60;87.60
69031;DHT22;56083;48.774;8.942;2023-09-19T15:46:31;23.50;88.10
69031;DHT22;56083;48.774;8.942;2023-09-19T15:49:00;23.70;88.30
69031;DHT22;56083;48.774;8.942;2023-09-19T15:51:26;23.90;88.50
69031;DHT22;56083;48.774;8.942;2023-09-19T15:53:53;24.00;87.30
69031;DHT22;56083;48.774;8.942;2023-09-19T15:56:21;24.10;88.20
69031;DHT22;56083;48.774;8.942;2023-09-19T15:58:49;24.40;87.90
69031;DHT22;56083;48.774;8.942;2023-09-19T16:01:15;24.90;86.70
69031;DHT22;56083;48.774;8.942;2023-09-19T16:03:48;25.20;85.60
69031;DHT22;56083;48.774;8.942;2023-09-19T16:06:18;25.20;85.30
69031;DHT22;56083;48.774;8.942;2023-09-19T16:08:45;25.20;85.00
69031;DHT22;56083;48.774;8.942;2023-09-19T16:11:12;24.90;86.20
69031;DHT22;56083;48.774;8.942;2023-09-19T16:13:39;24.50;87.50
69031;DHT22;56083;48.774;8.942;2023-09-19T16:16:06;24.30;88.70
69031;DHT22;56083;48.774;8.942;2023-09-19T16:18:33;23.70;89.60
69031;DHT22;56083;48.774;8.942;2023-09-19T16:21:06;23.40;90.20
69031;DHT22;56083;48.774;8.942;2023-09-19T16:23:36;23.20;90.80
69031;DHT22;56083;48.774;8.942;2023-09-19T16:28:30;22.60;91.60
69031;DHT22;56083;48.774;8.942;2023-09-19T16:30:58;22.30;92.20
69031;DHT22;56083;48.774;8.942;2023-09-19T16:33:25;22.20;92.70
69031;DHT22;56083;48.774;8.942;2023-09-19T16:35:51;22.10;92.90
69031;DHT22;56083;48.774;8.942;2023-09-19T16:38:18;22.00;93.10